Hills Flat, California
Current Conditions -  °F | °C
As of 12:20 PM on Sunday 25 Jan 2015 (Local Time) from KGOO Reporting Station
Clear Clear  
Wind Chill: 68°   Ceiling: Unl
Heat Index: 68°   Visibility: 10mi
Dew Point: 36°   Wind: 0mph
Humidity: 30%   Direction: NA
Pressure: 30.15"   Gusts: NA
Location:  39.2183°N, 120.924°W
Report Text: KGOO 252020Z AUTO 00000KT 10SM CLR 20/02 A3015 RMK AO1
Loading
Personal Weather Stations






























Interactive Weather Map New forecast layout! Learn more

10-Day Weather Forecast

Advertisements
Track Severe Weather on mobile